sensor_id;sensor_type;location;lat;lon;timestamp;P1;durP1;ratioP1;P2;durP2;ratioP2
51883;SDS011;37915;53.254;6.598;2022-12-20T00:00:47;7.57;;;4.40;;
51883;SDS011;37915;53.254;6.598;2022-12-20T00:03:13;6.57;;;4.18;;
51883;SDS011;37915;53.254;6.598;2022-12-20T00:05:40;7.57;;;4.05;;
51883;SDS011;37915;53.254;6.598;2022-12-20T00:08:07;6.47;;;3.75;;
51883;SDS011;37915;53.254;6.598;2022-12-20T00:10:37;6.63;;;4.13;;
51883;SDS011;37915;53.254;6.598;2022-12-20T00:13:04;10.73;;;4.50;;
51883;SDS011;37915;53.254;6.598;2022-12-20T00:15:30;7.65;;;3.60;;
51883;SDS011;37915;53.254;6.598;2022-12-20T00:17:56;7.45;;;3.67;;
51883;SDS011;37915;53.254;6.598;2022-12-20T00:20:22;10.18;;;4.35;;
51883;SDS011;37915;53.254;6.598;2022-12-20T00:22:48;11.55;;;3.58;;
51883;SDS011;37915;53.254;6.598;2022-12-20T00:25:14;7.13;;;3.78;;
51883;SDS011;37915;53.254;6.598;2022-12-20T00:27:40;7.32;;;3.95;;
51883;SDS011;37915;53.254;6.598;2022-12-20T00:30:05;10.18;;;4.32;;
51883;SDS011;37915;53.254;6.598;2022-12-20T00:32:32;8.75;;;4.18;;
51883;SDS011;37915;53.254;6.598;2022-12-20T00:34:57;5.85;;;3.40;;
51883;SDS011;37915;53.254;6.598;2022-12-20T00:37:23;7.80;;;3.95;;
51883;SDS011;37915;53.254;6.598;2022-12-20T00:39:48;6.03;;;3.25;;
51883;SDS011;37915;53.254;6.598;2022-12-20T00:42:14;4.97;;;2.72;;
51883;SDS011;37915;53.254;6.598;2022-12-20T00:44:40;6.55;;;3.78;;
51883;SDS011;37915;53.254;6.598;2022-12-20T00:47:06;5.22;;;3.05;;
51883;SDS011;37915;53.254;6.598;2022-12-20T00:49:31;7.53;;;3.53;;
51883;SDS011;37915;53.254;6.598;2022-12-20T00:51:57;7.63;;;3.75;;
51883;SDS011;37915;53.254;6.598;2022-12-20T00:54:23;10.43;;;4.38;;
51883;SDS011;37915;53.254;6.598;2022-12-20T00:56:48;7.82;;;3.67;;
51883;SDS011;37915;53.254;6.598;2022-12-20T00:59:14;7.63;;;3.60;;
51883;SDS011;37915;53.254;6.598;2022-12-20T01:01:40;5.32;;;3.47;;
51883;SDS011;37915;53.254;6.598;2022-12-20T01:04:06;12.18;;;4.25;;
51883;SDS011;37915;53.254;6.598;2022-12-20T01:06:32;6.97;;;3.63;;
51883;SDS011;37915;53.254;6.598;2022-12-20T01:08:58;7.13;;;3.15;;
51883;SDS011;37915;53.254;6.598;2022-12-20T01:11:25;6.15;;;3.72;;
51883;SDS011;37915;53.254;6.598;2022-12-20T01:13:54;6.00;;;3.35;;
51883;SDS011;37915;53.254;6.598;2022-12-20T01:16:23;7.43;;;3.63;;
51883;SDS011;37915;53.254;6.598;2022-12-20T01:18:51;7.28;;;3.65;;
51883;SDS011;37915;53.254;6.598;2022-12-20T01:21:18;7.20;;;3.10;;
51883;SDS011;37915;53.254;6.598;2022-12-20T01:23:45;6.85;;;3.22;;
51883;SDS011;37915;53.254;6.598;2022-12-20T01:26:12;8.35;;;3.42;;
51883;SDS011;37915;53.254;6.598;2022-12-20T01:28:40;6.10;;;3.35;;
51883;SDS011;37915;53.254;6.598;2022-12-20T01:31:08;6.43;;;3.55;;
51883;SDS011;37915;53.254;6.598;2022-12-20T01:33:36;7.10;;;3.28;;
51883;SDS011;37915;53.254;6.598;2022-12-20T01:36:03;5.68;;;3.25;;
51883;SDS011;37915;53.254;6.598;2022-12-20T01:38:30;6.57;;;3.55;;
51883;SDS011;37915;53.254;6.598;2022-12-20T01:40:56;5.82;;;2.92;;
51883;SDS011;37915;53.254;6.598;2022-12-20T01:43:23;6.32;;;4.20;;
51883;SDS011;37915;53.254;6.598;2022-12-20T01:45:50;5.97;;;3.42;;
51883;SDS011;37915;53.254;6.598;2022-12-20T01:48:17;5.97;;;3.40;;
51883;SDS011;37915;53.254;6.598;2022-12-20T01:50:46;5.35;;;3.10;;
51883;SDS011;37915;53.254;6.598;2022-12-20T01:53:14;5.57;;;3.47;;
51883;SDS011;37915;53.254;6.598;2022-12-20T01:55:42;6.97;;;3.45;;
51883;SDS011;37915;53.254;6.598;2022-12-20T01:58:09;5.25;;;3.03;;
51883;SDS011;37915;53.254;6.598;2022-12-20T02:00:37;5.90;;;3.58;;
51883;SDS011;37915;53.254;6.598;2022-12-20T02:03:04;8.50;;;3.38;;
51883;SDS011;37915;53.254;6.598;2022-12-20T02:05:33;5.82;;;3.40;;
51883;SDS011;37915;53.254;6.598;2022-12-20T02:08:00;9.15;;;3.28;;
51883;SDS011;37915;53.254;6.598;2022-12-20T02:10:28;6.63;;;3.78;;
51883;SDS011;37915;53.254;6.598;2022-12-20T02:13:13;5.53;;;3.30;;
51883;SDS011;37915;53.254;6.598;2022-12-20T02:16:06;5.80;;;3.40;;
51883;SDS011;37915;53.254;6.598;2022-12-20T02:18:34;6.70;;;3.45;;
51883;SDS011;37915;53.254;6.598;2022-12-20T02:32:01;7.22;;;3.00;;
51883;SDS011;37915;53.254;6.598;2022-12-20T02:34:32;4.32;;;2.72;;
51883;SDS011;37915;53.254;6.598;2022-12-20T02:37:01;7.05;;;3.47;;
51883;SDS011;37915;53.254;6.598;2022-12-20T02:39:30;7.50;;;3.65;;
51883;SDS011;37915;53.254;6.598;2022-12-20T02:42:00;4.80;;;2.50;;
51883;SDS011;37915;53.254;6.598;2022-12-20T02:44:36;7.13;;;2.92;;
51883;SDS011;37915;53.254;6.598;2022-12-20T02:47:35;6.03;;;3.58;;
51883;SDS011;37915;53.254;6.598;2022-12-20T02:50:26;6.78;;;3.08;;
51883;SDS011;37915;53.254;6.598;2022-12-20T02:52:59;7.43;;;3.03;;
51883;SDS011;37915;53.254;6.598;2022-12-20T02:55:30;7.43;;;3.70;;
51883;SDS011;37915;53.254;6.598;2022-12-20T02:58:11;7.70;;;2.97;;
51883;SDS011;37915;53.254;6.598;2022-12-20T03:00:45;4.88;;;2.90;;
51883;SDS011;37915;53.254;6.598;2022-12-20T03:03:13;9.73;;;2.75;;
51883;SDS011;37915;53.254;6.598;2022-12-20T03:05:53;6.07;;;3.15;;
51883;SDS011;37915;53.254;6.598;2022-12-20T03:08:20;5.22;;;2.90;;
51883;SDS011;37915;53.254;6.598;2022-12-20T03:10:48;8.07;;;3.60;;
51883;SDS011;37915;53.254;6.598;2022-12-20T03:13:14;6.10;;;3.30;;
51883;SDS011;37915;53.254;6.598;2022-12-20T03:15:40;7.30;;;2.97;;
51883;SDS011;37915;53.254;6.598;2022-12-20T03:18:06;7.28;;;3.53;;
51883;SDS011;37915;53.254;6.598;2022-12-20T03:20:31;6.63;;;3.13;;
51883;SDS011;37915;53.254;6.598;2022-12-20T03:22:57;6.40;;;2.95;;
51883;SDS011;37915;53.254;6.598;2022-12-20T03:25:23;5.93;;;3.00;;
51883;SDS011;37915;53.254;6.598;2022-12-20T03:27:49;7.20;;;3.33;;
51883;SDS011;37915;53.254;6.598;2022-12-20T03:30:14;6.13;;;3.22;;
51883;SDS011;37915;53.254;6.598;2022-12-20T03:32:40;8.73;;;3.60;;
51883;SDS011;37915;53.254;6.598;2022-12-20T03:35:06;5.72;;;2.85;;
51883;SDS011;37915;53.254;6.598;2022-12-20T03:37:32;5.55;;;3.25;;
51883;SDS011;37915;53.254;6.598;2022-12-20T03:39:58;6.38;;;3.08;;
51883;SDS011;37915;53.254;6.598;2022-12-20T03:42:24;5.53;;;3.15;;
51883;SDS011;37915;53.254;6.598;2022-12-20T03:44:49;5.70;;;3.05;;
51883;SDS011;37915;53.254;6.598;2022-12-20T03:47:15;5.00;;;2.70;;
51883;SDS011;37915;53.254;6.598;2022-12-20T03:49:41;6.30;;;3.45;;
51883;SDS011;37915;53.254;6.598;2022-12-20T03:52:07;7.15;;;3.17;;
51883;SDS011;37915;53.254;6.598;2022-12-20T03:54:36;5.35;;;3.00;;
51883;SDS011;37915;53.254;6.598;2022-12-20T03:57:02;5.97;;;2.97;;
51883;SDS011;37915;53.254;6.598;2022-12-20T03:59:27;6.30;;;3.15;;
51883;SDS011;37915;53.254;6.598;2022-12-20T04:01:53;8.55;;;3.20;;
51883;SDS011;37915;53.254;6.598;2022-12-20T04:04:19;5.28;;;3.13;;
51883;SDS011;37915;53.254;6.598;2022-12-20T04:06:44;4.95;;;2.83;;
51883;SDS011;37915;53.254;6.598;2022-12-20T04:09:10;9.65;;;3.53;;
51883;SDS011;37915;53.254;6.598;2022-12-20T04:11:36;7.95;;;3.28;;
51883;SDS011;37915;53.254;6.598;2022-12-20T04:14:03;8.75;;;3.40;;
51883;SDS011;37915;53.254;6.598;2022-12-20T04:16:29;6.68;;;2.97;;
51883;SDS011;37915;53.254;6.598;2022-12-20T04:18:55;5.30;;;2.95;;
51883;SDS011;37915;53.254;6.598;2022-12-20T04:21:21;10.20;;;3.20;;
51883;SDS011;37915;53.254;6.598;2022-12-20T04:23:52;6.13;;;3.40;;
51883;SDS011;37915;53.254;6.598;2022-12-20T04:26:18;5.93;;;3.50;;
51883;SDS011;37915;53.254;6.598;2022-12-20T04:28:44;5.55;;;3.05;;
51883;SDS011;37915;53.254;6.598;2022-12-20T04:31:10;6.97;;;3.50;;
51883;SDS011;37915;53.254;6.598;2022-12-20T04:33:35;5.43;;;3.28;;
51883;SDS011;37915;53.254;6.598;2022-12-20T04:36:01;6.10;;;2.95;;
51883;SDS011;37915;53.254;6.598;2022-12-20T04:38:27;4.55;;;2.88;;
51883;SDS011;37915;53.254;6.598;2022-12-20T04:40:53;4.53;;;2.65;;
51883;SDS011;37915;53.254;6.598;2022-12-20T04:43:19;7.07;;;2.78;;
51883;SDS011;37915;53.254;6.598;2022-12-20T04:45:46;8.52;;;3.05;;
51883;SDS011;37915;53.254;6.598;2022-12-20T04:48:13;7.43;;;3.03;;
51883;SDS011;37915;53.254;6.598;2022-12-20T04:50:39;5.82;;;3.42;;
51883;SDS011;37915;53.254;6.598;2022-12-20T04:53:05;4.97;;;2.88;;
51883;SDS011;37915;53.254;6.598;2022-12-20T04:55:49;7.53;;;3.58;;
51883;SDS011;37915;53.254;6.598;2022-12-20T04:58:15;8.32;;;2.95;;
51883;SDS011;37915;53.254;6.598;2022-12-20T05:00:41;8.93;;;3.42;;
51883;SDS011;37915;53.254;6.598;2022-12-20T05:03:07;5.97;;;3.80;;
51883;SDS011;37915;53.254;6.598;2022-12-20T05:05:32;5.95;;;3.58;;
51883;SDS011;37915;53.254;6.598;2022-12-20T05:07:58;7.20;;;3.47;;
51883;SDS011;37915;53.254;6.598;2022-12-20T05:10:24;7.75;;;3.35;;
51883;SDS011;37915;53.254;6.598;2022-12-20T05:12:50;8.68;;;3.65;;
51883;SDS011;37915;53.254;6.598;2022-12-20T05:15:15;6.00;;;2.75;;
51883;SDS011;37915;53.254;6.598;2022-12-20T05:17:41;7.32;;;3.30;;
51883;SDS011;37915;53.254;6.598;2022-12-20T05:20:07;7.93;;;3.42;;
51883;SDS011;37915;53.254;6.598;2022-12-20T05:22:33;5.88;;;3.63;;
51883;SDS011;37915;53.254;6.598;2022-12-20T05:25:17;6.32;;;3.55;;
51883;SDS011;37915;53.254;6.598;2022-12-20T05:28:01;5.35;;;3.33;;
51883;SDS011;37915;53.254;6.598;2022-12-20T05:30:27;7.03;;;3.50;;
51883;SDS011;37915;53.254;6.598;2022-12-20T05:32:52;6.75;;;3.25;;
51883;SDS011;37915;53.254;6.598;2022-12-20T05:35:18;4.90;;;2.72;;
51883;SDS011;37915;53.254;6.598;2022-12-20T05:37:44;7.88;;;3.40;;
51883;SDS011;37915;53.254;6.598;2022-12-20T05:40:10;6.93;;;3.55;;
51883;SDS011;37915;53.254;6.598;2022-12-20T05:42:36;9.63;;;3.28;;
51883;SDS011;37915;53.254;6.598;2022-12-20T05:45:02;6.57;;;3.75;;
51883;SDS011;37915;53.254;6.598;2022-12-20T05:47:28;7.72;;;3.80;;
51883;SDS011;37915;53.254;6.598;2022-12-20T05:49:58;8.25;;;3.40;;
51883;SDS011;37915;53.254;6.598;2022-12-20T05:52:24;5.38;;;3.22;;
51883;SDS011;37915;53.254;6.598;2022-12-20T05:54:50;6.18;;;3.22;;
51883;SDS011;37915;53.254;6.598;2022-12-20T05:57:16;8.10;;;3.67;;
51883;SDS011;37915;53.254;6.598;2022-12-20T05:59:42;6.07;;;3.38;;
51883;SDS011;37915;53.254;6.598;2022-12-20T06:02:08;8.32;;;2.78;;
51883;SDS011;37915;53.254;6.598;2022-12-20T06:04:35;7.15;;;3.78;;
51883;SDS011;37915;53.254;6.598;2022-12-20T06:07:00;4.85;;;2.78;;
51883;SDS011;37915;53.254;6.598;2022-12-20T06:09:26;5.07;;;2.97;;
51883;SDS011;37915;53.254;6.598;2022-12-20T06:11:52;5.20;;;2.95;;
51883;SDS011;37915;53.254;6.598;2022-12-20T06:14:18;4.97;;;2.72;;
51883;SDS011;37915;53.254;6.598;2022-12-20T06:16:43;7.03;;;3.45;;
51883;SDS011;37915;53.254;6.598;2022-12-20T06:19:09;4.78;;;3.08;;
51883;SDS011;37915;53.254;6.598;2022-12-20T06:21:35;6.90;;;3.17;;
51883;SDS011;37915;53.254;6.598;2022-12-20T06:24:00;5.03;;;2.45;;
51883;SDS011;37915;53.254;6.598;2022-12-20T06:26:26;7.30;;;3.45;;
51883;SDS011;37915;53.254;6.598;2022-12-20T06:28:53;4.97;;;2.92;;
51883;SDS011;37915;53.254;6.598;2022-12-20T06:31:21;5.15;;;3.00;;
51883;SDS011;37915;53.254;6.598;2022-12-20T06:33:46;7.63;;;3.42;;
51883;SDS011;37915;53.254;6.598;2022-12-20T06:36:12;6.65;;;2.95;;
51883;SDS011;37915;53.254;6.598;2022-12-20T06:38:38;8.55;;;3.28;;
51883;SDS011;37915;53.254;6.598;2022-12-20T06:41:03;8.98;;;3.20;;
51883;SDS011;37915;53.254;6.598;2022-12-20T06:43:29;6.47;;;3.22;;
51883;SDS011;37915;53.254;6.598;2022-12-20T06:45:55;6.47;;;2.63;;
51883;SDS011;37915;53.254;6.598;2022-12-20T06:48:20;7.70;;;3.22;;
51883;SDS011;37915;53.254;6.598;2022-12-20T06:50:49;5.50;;;2.67;;
51883;SDS011;37915;53.254;6.598;2022-12-20T06:53:15;6.22;;;3.08;;
51883;SDS011;37915;53.254;6.598;2022-12-20T06:55:41;8.00;;;3.15;;
51883;SDS011;37915;53.254;6.598;2022-12-20T06:58:07;5.00;;;2.88;;
51883;SDS011;37915;53.254;6.598;2022-12-20T07:00:32;7.15;;;3.13;;
51883;SDS011;37915;53.254;6.598;2022-12-20T07:02:58;9.48;;;3.05;;
51883;SDS011;37915;53.254;6.598;2022-12-20T07:05:24;6.15;;;2.90;;
51883;SDS011;37915;53.254;6.598;2022-12-20T07:07:49;6.07;;;2.92;;
51883;SDS011;37915;53.254;6.598;2022-12-20T07:10:15;6.18;;;3.25;;
51883;SDS011;37915;53.254;6.598;2022-12-20T07:12:41;5.10;;;2.88;;
51883;SDS011;37915;53.254;6.598;2022-12-20T07:15:07;6.35;;;3.15;;
51883;SDS011;37915;53.254;6.598;2022-12-20T07:17:33;7.43;;;3.63;;
51883;SDS011;37915;53.254;6.598;2022-12-20T07:19:59;6.80;;;3.40;;
51883;SDS011;37915;53.254;6.598;2022-12-20T07:22:25;5.72;;;3.40;;
51883;SDS011;37915;53.254;6.598;2022-12-20T07:24:51;5.47;;;3.40;;
51883;SDS011;37915;53.254;6.598;2022-12-20T07:27:17;7.65;;;3.47;;
51883;SDS011;37915;53.254;6.598;2022-12-20T07:29:42;6.72;;;3.30;;
51883;SDS011;37915;53.254;6.598;2022-12-20T07:32:09;5.25;;;3.83;;
51883;SDS011;37915;53.254;6.598;2022-12-20T07:34:36;10.60;;;4.35;;
51883;SDS011;37915;53.254;6.598;2022-12-20T07:37:02;6.70;;;3.60;;
51883;SDS011;37915;53.254;6.598;2022-12-20T07:39:28;8.02;;;3.85;;
51883;SDS011;37915;53.254;6.598;2022-12-20T07:41:54;9.43;;;4.22;;
51883;SDS011;37915;53.254;6.598;2022-12-20T07:44:21;6.80;;;3.83;;
51883;SDS011;37915;53.254;6.598;2022-12-20T07:46:47;6.03;;;3.90;;
51883;SDS011;37915;53.254;6.598;2022-12-20T07:49:13;8.40;;;4.13;;
51883;SDS011;37915;53.254;6.598;2022-12-20T07:51:40;6.43;;;3.55;;
51883;SDS011;37915;53.254;6.598;2022-12-20T07:54:17;6.68;;;3.95;;
51883;SDS011;37915;53.254;6.598;2022-12-20T07:56:50;8.93;;;5.05;;
51883;SDS011;37915;53.254;6.598;2022-12-20T07:59:20;5.38;;;3.50;;
51883;SDS011;37915;53.254;6.598;2022-12-20T08:01:51;7.05;;;4.38;;
51883;SDS011;37915;53.254;6.598;2022-12-20T08:04:18;6.40;;;4.43;;
51883;SDS011;37915;53.254;6.598;2022-12-20T08:06:47;5.68;;;3.58;;
51883;SDS011;37915;53.254;6.598;2022-12-20T08:09:14;6.95;;;4.63;;
51883;SDS011;37915;53.254;6.598;2022-12-20T08:11:42;10.45;;;4.88;;
51883;SDS011;37915;53.254;6.598;2022-12-20T08:14:10;6.78;;;4.47;;
51883;SDS011;37915;53.254;6.598;2022-12-20T08:16:37;7.65;;;4.97;;
51883;SDS011;37915;53.254;6.598;2022-12-20T08:19:03;7.00;;;4.47;;
51883;SDS011;37915;53.254;6.598;2022-12-20T08:21:29;9.77;;;3.88;;
51883;SDS011;37915;53.254;6.598;2022-12-20T08:23:55;8.38;;;4.20;;
51883;SDS011;37915;53.254;6.598;2022-12-20T08:26:21;7.20;;;4.70;;
51883;SDS011;37915;53.254;6.598;2022-12-20T08:28:47;7.32;;;4.40;;
51883;SDS011;37915;53.254;6.598;2022-12-20T08:31:13;8.93;;;4.85;;
51883;SDS011;37915;53.254;6.598;2022-12-20T08:33:39;8.55;;;4.40;;
51883;SDS011;37915;53.254;6.598;2022-12-20T08:36:06;5.25;;;3.25;;
51883;SDS011;37915;53.254;6.598;2022-12-20T08:38:34;7.93;;;3.88;;
51883;SDS011;37915;53.254;6.598;2022-12-20T08:41:04;6.93;;;2.83;;
51883;SDS011;37915;53.254;6.598;2022-12-20T08:43:32;7.72;;;3.40;;
51883;SDS011;37915;53.254;6.598;2022-12-20T08:45:58;7.82;;;4.25;;
51883;SDS011;37915;53.254;6.598;2022-12-20T08:48:25;6.28;;;3.63;;
51883;SDS011;37915;53.254;6.598;2022-12-20T08:50:55;5.68;;;3.53;;
51883;SDS011;37915;53.254;6.598;2022-12-20T08:53:22;5.97;;;3.50;;
51883;SDS011;37915;53.254;6.598;2022-12-20T08:55:48;6.68;;;3.55;;
51883;SDS011;37915;53.254;6.598;2022-12-20T08:58:13;6.07;;;3.60;;
51883;SDS011;37915;53.254;6.598;2022-12-20T09:00:39;7.72;;;4.07;;
51883;SDS011;37915;53.254;6.598;2022-12-20T09:03:05;7.90;;;3.30;;
51883;SDS011;37915;53.254;6.598;2022-12-20T09:05:32;6.10;;;3.25;;
51883;SDS011;37915;53.254;6.598;2022-12-20T09:07:58;5.53;;;3.22;;
51883;SDS011;37915;53.254;6.598;2022-12-20T09:10:23;7.05;;;3.35;;
51883;SDS011;37915;53.254;6.598;2022-12-20T09:12:49;7.22;;;3.55;;
51883;SDS011;37915;53.254;6.598;2022-12-20T09:15:15;6.47;;;2.85;;
51883;SDS011;37915;53.254;6.598;2022-12-20T09:17:40;9.20;;;3.63;;
51883;SDS011;37915;53.254;6.598;2022-12-20T09:20:06;6.07;;;3.22;;
51883;SDS011;37915;53.254;6.598;2022-12-20T09:22:32;7.55;;;2.95;;
51883;SDS011;37915;53.254;6.598;2022-12-20T09:24:58;7.30;;;3.00;;
51883;SDS011;37915;53.254;6.598;2022-12-20T09:27:23;5.80;;;2.80;;
51883;SDS011;37915;53.254;6.598;2022-12-20T09:29:49;5.10;;;2.47;;
51883;SDS011;37915;53.254;6.598;2022-12-20T09:32:15;7.07;;;3.05;;
51883;SDS011;37915;53.254;6.598;2022-12-20T09:34:40;5.95;;;2.95;;
51883;SDS011;37915;53.254;6.598;2022-12-20T09:37:06;4.53;;;2.80;;
51883;SDS011;37915;53.254;6.598;2022-12-20T09:39:32;6.07;;;2.78;;
51883;SDS011;37915;53.254;6.598;2022-12-20T09:41:58;6.13;;;2.88;;
51883;SDS011;37915;53.254;6.598;2022-12-20T09:46:53;7.90;;;3.20;;
51883;SDS011;37915;53.254;6.598;2022-12-20T09:49:25;5.32;;;2.88;;
51883;SDS011;37915;53.254;6.598;2022-12-20T09:57:24;5.72;;;2.42;;
51883;SDS011;37915;53.254;6.598;2022-12-20T10:00:14;9.00;;;2.60;;
51883;SDS011;37915;53.254;6.598;2022-12-20T10:02:41;5.85;;;2.45;;
51883;SDS011;37915;53.254;6.598;2022-12-20T10:05:18;8.40;;;3.20;;
51883;SDS011;37915;53.254;6.598;2022-12-20T10:08:08;5.80;;;2.70;;
51883;SDS011;37915;53.254;6.598;2022-12-20T10:10:50;9.68;;;2.90;;
51883;SDS011;37915;53.254;6.598;2022-12-20T10:13:34;5.18;;;2.85;;
51883;SDS011;37915;53.254;6.598;2022-12-20T10:16:31;4.57;;;2.30;;
51883;SDS011;37915;53.254;6.598;2022-12-20T10:25:16;7.53;;;2.88;;
51883;SDS011;37915;53.254;6.598;2022-12-20T10:27:44;5.47;;;2.70;;
51883;SDS011;37915;53.254;6.598;2022-12-20T10:30:12;6.30;;;2.67;;
51883;SDS011;37915;53.254;6.598;2022-12-20T10:32:42;4.85;;;2.40;;
51883;SDS011;37915;53.254;6.598;2022-12-20T10:37:39;3.10;;;1.75;;
51883;SDS011;37915;53.254;6.598;2022-12-20T10:40:28;6.50;;;2.80;;
51883;SDS011;37915;53.254;6.598;2022-12-20T10:42:55;6.10;;;2.35;;
51883;SDS011;37915;53.254;6.598;2022-12-20T10:47:47;4.50;;;2.70;;
51883;SDS011;37915;53.254;6.598;2022-12-20T10:50:19;3.78;;;2.25;;
51883;SDS011;37915;53.254;6.598;2022-12-20T11:03:53;4.05;;;2.03;;
51883;SDS011;37915;53.254;6.598;2022-12-20T11:06:21;5.53;;;2.60;;
51883;SDS011;37915;53.254;6.598;2022-12-20T11:08:50;4.68;;;2.95;;
51883;SDS011;37915;53.254;6.598;2022-12-20T11:11:20;6.13;;;2.92;;
51883;SDS011;37915;53.254;6.598;2022-12-20T11:13:50;7.50;;;2.95;;
51883;SDS011;37915;53.254;6.598;2022-12-20T11:16:21;7.00;;;3.08;;
51883;SDS011;37915;53.254;6.598;2022-12-20T11:18:53;4.30;;;1.77;;
51883;SDS011;37915;53.254;6.598;2022-12-20T11:27:03;3.63;;;2.38;;
51883;SDS011;37915;53.254;6.598;2022-12-20T11:29:47;6.43;;;2.97;;
51883;SDS011;37915;53.254;6.598;2022-12-20T11:41:04;7.40;;;2.90;;
51883;SDS011;37915;53.254;6.598;2022-12-20T11:51:53;5.50;;;2.40;;
51883;SDS011;37915;53.254;6.598;2022-12-20T11:54:55;5.85;;;2.78;;
51883;SDS011;37915;53.254;6.598;2022-12-20T11:57:30;5.97;;;3.03;;
51883;SDS011;37915;53.254;6.598;2022-12-20T12:00:04;5.05;;;2.67;;
51883;SDS011;37915;53.254;6.598;2022-12-20T12:08:02;6.95;;;2.80;;
51883;SDS011;37915;53.254;6.598;2022-12-20T12:10:34;4.28;;;2.80;;
51883;SDS011;37915;53.254;6.598;2022-12-20T12:13:11;4.70;;;2.70;;
51883;SDS011;37915;53.254;6.598;2022-12-20T12:18:19;7.13;;;2.80;;
51883;SDS011;37915;53.254;6.598;2022-12-20T12:20:54;6.45;;;2.83;;
51883;SDS011;37915;53.254;6.598;2022-12-20T12:26:02;5.07;;;2.70;;
51883;SDS011;37915;53.254;6.598;2022-12-20T12:28:34;5.07;;;3.00;;
51883;SDS011;37915;53.254;6.598;2022-12-20T12:31:05;6.30;;;3.10;;
51883;SDS011;37915;53.254;6.598;2022-12-20T12:34:25;6.10;;;2.90;;
51883;SDS011;37915;53.254;6.598;2022-12-20T12:36:32;9.02;;;3.42;;
51883;SDS011;37915;53.254;6.598;2022-12-20T12:44:34;5.22;;;2.85;;
51883;SDS011;37915;53.254;6.598;2022-12-20T12:47:18;4.38;;;2.10;;
51883;SDS011;37915;53.254;6.598;2022-12-20T12:49:49;5.03;;;2.85;;
51883;SDS011;37915;53.254;6.598;2022-12-20T12:55:52;7.57;;;2.88;;
51883;SDS011;37915;53.254;6.598;2022-12-20T12:58:12;5.25;;;3.00;;
51883;SDS011;37915;53.254;6.598;2022-12-20T13:11:31;4.28;;;2.78;;
51883;SDS011;37915;53.254;6.598;2022-12-20T13:14:45;5.18;;;2.75;;
51883;SDS011;37915;53.254;6.598;2022-12-20T13:16:49;7.85;;;3.00;;
51883;SDS011;37915;53.254;6.598;2022-12-20T13:19:38;6.80;;;3.80;;
51883;SDS011;37915;53.254;6.598;2022-12-20T13:30:00;4.97;;;2.58;;
51883;SDS011;37915;53.254;6.598;2022-12-20T13:40:43;6.53;;;3.17;;
51883;SDS011;37915;53.254;6.598;2022-12-20T13:45:48;5.72;;;3.50;;
51883;SDS011;37915;53.254;6.598;2022-12-20T13:48:41;6.25;;;3.72;;
51883;SDS011;37915;53.254;6.598;2022-12-20T13:51:18;7.03;;;4.40;;
51883;SDS011;37915;53.254;6.598;2022-12-20T13:54:19;7.82;;;4.20;;
51883;SDS011;37915;53.254;6.598;2022-12-20T14:01:49;7.60;;;4.15;;
51883;SDS011;37915;53.254;6.598;2022-12-20T14:04:18;6.13;;;4.55;;
51883;SDS011;37915;53.254;6.598;2022-12-20T14:06:51;5.90;;;3.50;;
51883;SDS011;37915;53.254;6.598;2022-12-20T14:09:33;6.63;;;4.40;;
51883;SDS011;37915;53.254;6.598;2022-12-20T14:12:14;11.20;;;4.53;;
51883;SDS011;37915;53.254;6.598;2022-12-20T14:14:41;9.88;;;5.20;;
51883;SDS011;37915;53.254;6.598;2022-12-20T14:19:42;12.13;;;5.50;;
51883;SDS011;37915;53.254;6.598;2022-12-20T14:22:11;9.93;;;5.50;;
51883;SDS011;37915;53.254;6.598;2022-12-20T14:24:41;7.47;;;5.40;;
51883;SDS011;37915;53.254;6.598;2022-12-20T14:27:10;8.25;;;4.97;;
51883;SDS011;37915;53.254;6.598;2022-12-20T14:29:38;8.00;;;5.03;;
51883;SDS011;37915;53.254;6.598;2022-12-20T14:32:04;12.15;;;6.10;;
51883;SDS011;37915;53.254;6.598;2022-12-20T14:34:31;8.23;;;4.63;;
51883;SDS011;37915;53.254;6.598;2022-12-20T14:39:54;10.57;;;6.22;;
51883;SDS011;37915;53.254;6.598;2022-12-20T14:42:20;8.50;;;6.18;;
51883;SDS011;37915;53.254;6.598;2022-12-20T14:44:46;9.20;;;5.43;;
51883;SDS011;37915;53.254;6.598;2022-12-20T14:49:47;10.85;;;6.38;;
51883;SDS011;37915;53.254;6.598;2022-12-20T14:52:28;10.75;;;6.63;;
51883;SDS011;37915;53.254;6.598;2022-12-20T14:55:04;11.80;;;6.45;;
51883;SDS011;37915;53.254;6.598;2022-12-20T15:13:43;13.82;;;8.13;;
51883;SDS011;37915;53.254;6.598;2022-12-20T15:16:15;12.90;;;8.13;;
51883;SDS011;37915;53.254;6.598;2022-12-20T15:18:43;15.00;;;9.18;;
51883;SDS011;37915;53.254;6.598;2022-12-20T15:21:28;11.77;;;8.93;;
51883;SDS011;37915;53.254;6.598;2022-12-20T15:24:00;17.00;;;9.57;;
51883;SDS011;37915;53.254;6.598;2022-12-20T15:26:31;13.43;;;8.45;;
51883;SDS011;37915;53.254;6.598;2022-12-20T15:28:58;15.15;;;8.55;;
51883;SDS011;37915;53.254;6.598;2022-12-20T15:31:23;12.02;;;9.23;;
51883;SDS011;37915;53.254;6.598;2022-12-20T15:33:50;14.68;;;9.48;;
51883;SDS011;37915;53.254;6.598;2022-12-20T15:36:24;15.05;;;9.40;;
51883;SDS011;37915;53.254;6.598;2022-12-20T15:38:52;13.82;;;9.32;;
51883;SDS011;37915;53.254;6.598;2022-12-20T15:41:23;18.05;;;10.20;;
51883;SDS011;37915;53.254;6.598;2022-12-20T15:43:54;15.38;;;9.23;;
51883;SDS011;37915;53.254;6.598;2022-12-20T15:46:25;11.70;;;8.93;;
51883;SDS011;37915;53.254;6.598;2022-12-20T15:48:52;19.30;;;10.73;;
51883;SDS011;37915;53.254;6.598;2022-12-20T15:51:20;15.25;;;10.48;;
51883;SDS011;37915;53.254;6.598;2022-12-20T15:53:47;14.63;;;10.68;;
51883;SDS011;37915;53.254;6.598;2022-12-20T15:56:17;13.52;;;10.40;;
51883;SDS011;37915;53.254;6.598;2022-12-20T15:58:46;16.73;;;10.82;;
51883;SDS011;37915;53.254;6.598;2022-12-20T16:01:19;13.88;;;10.30;;
51883;SDS011;37915;53.254;6.598;2022-12-20T16:03:48;15.45;;;10.43;;
51883;SDS011;37915;53.254;6.598;2022-12-20T16:06:14;15.85;;;10.63;;
51883;SDS011;37915;53.254;6.598;2022-12-20T16:08:40;16.50;;;10.57;;
51883;SDS011;37915;53.254;6.598;2022-12-20T16:11:06;15.00;;;10.50;;
51883;SDS011;37915;53.254;6.598;2022-12-20T16:13:45;16.10;;;10.38;;
51883;SDS011;37915;53.254;6.598;2022-12-20T16:16:18;17.10;;;11.20;;
51883;SDS011;37915;53.254;6.598;2022-12-20T16:18:46;18.33;;;11.07;;
51883;SDS011;37915;53.254;6.598;2022-12-20T16:21:15;17.50;;;12.30;;
51883;SDS011;37915;53.254;6.598;2022-12-20T16:23:43;17.50;;;11.52;;
51883;SDS011;37915;53.254;6.598;2022-12-20T16:26:13;19.08;;;11.93;;
51883;SDS011;37915;53.254;6.598;2022-12-20T16:28:40;17.83;;;12.38;;
51883;SDS011;37915;53.254;6.598;2022-12-20T16:33:56;16.65;;;11.77;;
51883;SDS011;37915;53.254;6.598;2022-12-20T16:36:24;18.98;;;11.90;;
51883;SDS011;37915;53.254;6.598;2022-12-20T16:38:52;16.77;;;12.35;;
51883;SDS011;37915;53.254;6.598;2022-12-20T16:41:19;16.42;;;11.18;;
51883;SDS011;37915;53.254;6.598;2022-12-20T16:43:47;18.00;;;12.55;;
51883;SDS011;37915;53.254;6.598;2022-12-20T16:46:17;21.45;;;13.15;;
51883;SDS011;37915;53.254;6.598;2022-12-20T16:48:44;20.98;;;12.18;;
51883;SDS011;37915;53.254;6.598;2022-12-20T16:53:49;24.13;;;13.35;;
51883;SDS011;37915;53.254;6.598;2022-12-20T16:56:16;21.27;;;14.05;;
51883;SDS011;37915;53.254;6.598;2022-12-20T16:58:41;23.45;;;14.38;;
51883;SDS011;37915;53.254;6.598;2022-12-20T17:01:14;20.65;;;14.18;;
51883;SDS011;37915;53.254;6.598;2022-12-20T17:03:42;20.15;;;14.25;;
51883;SDS011;37915;53.254;6.598;2022-12-20T17:06:10;21.38;;;13.63;;
51883;SDS011;37915;53.254;6.598;2022-12-20T17:08:37;19.48;;;13.15;;
51883;SDS011;37915;53.254;6.598;2022-12-20T17:11:08;22.33;;;13.35;;
51883;SDS011;37915;53.254;6.598;2022-12-20T17:13:37;19.70;;;13.07;;
51883;SDS011;37915;53.254;6.598;2022-12-20T17:16:04;19.83;;;13.23;;
51883;SDS011;37915;53.254;6.598;2022-12-20T17:18:30;21.20;;;14.60;;
51883;SDS011;37915;53.254;6.598;2022-12-20T17:20:56;19.48;;;13.15;;